createdAt,value
2018-10-03T00:01:30.624Z,97.59
2018-10-03T00:03:59.193Z,98.94
2018-10-03T00:06:27.736Z,98.10
2018-10-03T00:08:56.407Z,98.79
2018-10-03T00:11:24.980Z,98.16
2018-10-03T00:13:53.532Z,99.08
2018-10-03T00:16:22.065Z,98.99
2018-10-03T00:18:50.641Z,100.00
2018-10-03T00:21:19.268Z,99.22
2018-10-03T00:23:48.095Z,99.44
2018-10-03T00:26:16.697Z,99.79
2018-10-03T00:28:45.219Z,99.72
2018-10-03T00:31:13.877Z,99.37
2018-10-03T00:33:42.656Z,98.64
2018-10-03T00:36:11.357Z,98.75
2018-10-03T00:38:40.126Z,99.35
2018-10-03T00:41:09.184Z,98.43
2018-10-03T00:43:38.179Z,99.51
2018-10-03T00:46:07.518Z,99.02
2018-10-03T00:48:36.131Z,99.38
2018-10-03T00:51:04.695Z,99.42
2018-10-03T00:53:33.404Z,99.21
2018-10-03T00:56:01.956Z,99.41
2018-10-03T00:58:30.557Z,100.00
2018-10-03T01:00:59.228Z,100.00
2018-10-03T01:03:27.880Z,100.00
2018-10-03T01:05:56.490Z,100.00
2018-10-03T01:08:25.137Z,99.36
2018-10-03T01:10:53.732Z,99.64
2018-10-03T01:13:22.312Z,100.00
2018-10-03T01:15:50.956Z,100.00
2018-10-03T01:18:19.589Z,100.00
2018-10-03T01:20:48.208Z,100.00
2018-10-03T01:23:16.853Z,100.00
2018-10-03T01:25:45.444Z,99.96
2018-10-03T01:28:14.166Z,99.94
2018-10-03T01:30:42.775Z,99.74
2018-10-03T01:33:11.337Z,100.00
2018-10-03T01:35:39.936Z,99.94
2018-10-03T01:38:08.593Z,99.98
2018-10-03T01:40:37.133Z,99.91
2018-10-03T01:43:05.750Z,99.18
2018-10-03T01:45:34.576Z,99.75
2018-10-03T01:48:03.201Z,99.43
2018-10-03T01:50:31.729Z,98.85
2018-10-03T01:53:00.525Z,98.12
2018-10-03T01:55:29.186Z,98.66
2018-10-03T01:57:57.781Z,98.46
2018-10-03T02:00:26.752Z,98.42
2018-10-03T02:02:55.392Z,98.29
2018-10-03T02:05:23.968Z,98.57
2018-10-03T02:07:53.061Z,97.86
2018-10-03T02:10:21.992Z,98.36
2018-10-03T02:12:50.809Z,98.42
2018-10-03T02:15:19.546Z,98.43
2018-10-03T02:17:48.124Z,98.47
2018-10-03T02:20:16.716Z,98.63
2018-10-03T02:22:45.484Z,98.82
2018-10-03T02:25:14.092Z,98.59
2018-10-03T02:27:42.688Z,98.18
2018-10-03T02:30:11.378Z,98.57
2018-10-03T02:32:39.937Z,98.02
2018-10-03T02:35:08.529Z,97.87
2018-10-03T02:37:37.197Z,98.40
2018-10-03T02:40:05.900Z,98.56
2018-10-03T02:42:34.632Z,99.44
2018-10-03T02:45:03.419Z,99.94
2018-10-03T02:47:31.953Z,99.70
2018-10-03T02:50:00.531Z,99.67
2018-10-03T02:52:29.184Z,98.44
2018-10-03T02:54:57.898Z,98.03
2018-10-03T02:57:26.493Z,99.11
2018-10-03T02:59:55.061Z,99.37
2018-10-03T03:02:23.605Z,99.80
2018-10-03T03:04:52.165Z,99.25
2018-10-03T03:07:20.878Z,99.41
2018-10-03T03:09:49.521Z,99.53
2018-10-03T03:12:18.340Z,100.00
2018-10-03T03:14:47.109Z,100.00
2018-10-03T03:17:15.734Z,100.00
2018-10-03T03:19:44.320Z,100.00
2018-10-03T03:22:12.953Z,100.00
2018-10-03T03:24:41.572Z,100.00
2018-10-03T03:27:10.216Z,100.00
2018-10-03T03:29:38.948Z,100.00
2018-10-03T03:32:07.517Z,100.00
2018-10-03T03:34:36.054Z,100.00
2018-10-03T03:37:04.739Z,100.00
2018-10-03T03:39:33.317Z,100.00
2018-10-03T03:42:01.873Z,100.00
2018-10-03T03:44:30.558Z,100.00
2018-10-03T03:46:59.129Z,100.00
2018-10-03T03:49:27.678Z,100.00
2018-10-03T03:51:56.293Z,100.00
2018-10-03T03:54:24.980Z,100.00
2018-10-03T03:56:53.665Z,100.00
2018-10-03T03:59:22.416Z,98.93
2018-10-03T04:01:51.105Z,98.62
2018-10-03T04:04:19.693Z,98.18
2018-10-03T04:06:48.392Z,97.83
2018-10-03T04:09:16.945Z,98.43
2018-10-03T04:11:45.613Z,98.35
2018-10-03T04:14:14.284Z,97.38
2018-10-03T04:16:43.066Z,98.87
2018-10-03T04:19:11.702Z,97.52
2018-10-03T04:21:41.394Z,97.72
2018-10-03T04:24:11.248Z,96.96
2018-10-03T04:26:40.470Z,96.73
2018-10-03T04:29:09.254Z,97.08
2018-10-03T04:31:38.012Z,96.75
2018-10-03T04:34:07.093Z,96.70
2018-10-03T04:36:36.136Z,97.34
2018-10-03T04:39:06.581Z,96.69
2018-10-03T04:41:35.813Z,96.19
2018-10-03T04:44:04.420Z,96.94
2018-10-03T04:46:33.456Z,96.53
2018-10-03T04:49:02.111Z,97.29
2018-10-03T04:51:30.687Z,98.15
2018-10-03T04:53:59.624Z,98.39
2018-10-03T04:56:28.306Z,99.17
2018-10-03T04:58:56.873Z,99.15
2018-10-03T05:01:25.812Z,98.84
2018-10-03T05:03:54.390Z,99.74
2018-10-03T05:06:22.993Z,99.30
2018-10-03T05:08:51.597Z,99.42
2018-10-03T05:11:20.323Z,99.61
2018-10-03T05:13:48.821Z,98.98
2018-10-03T05:16:17.532Z,98.05
2018-10-03T05:18:46.172Z,98.54
2018-10-03T05:21:14.687Z,99.18
2018-10-03T05:23:43.264Z,98.02
2018-10-03T05:26:11.934Z,98.21
2018-10-03T05:28:40.480Z,99.23
2018-10-03T05:31:09.421Z,98.91
2018-10-03T05:33:38.229Z,98.89
2018-10-03T05:36:06.800Z,98.45
2018-10-03T05:38:35.397Z,98.77
2018-10-03T05:41:04.041Z,98.74
2018-10-03T05:43:33.005Z,99.05
2018-10-03T05:46:01.677Z,98.24
2018-10-03T05:48:30.278Z,98.56
2018-10-03T05:50:58.746Z,98.75
2018-10-03T05:53:27.372Z,98.77
2018-10-03T05:55:55.905Z,99.27
2018-10-03T05:58:24.528Z,98.38
2018-10-03T06:00:53.257Z,98.95
2018-10-03T06:03:21.924Z,98.18
2018-10-03T06:05:50.522Z,98.85
2018-10-03T06:08:19.587Z,97.82
2018-10-03T06:10:48.233Z,97.88
2018-10-03T06:13:20.040Z,98.27
2018-10-03T06:15:48.822Z,98.43
2018-10-03T06:18:17.480Z,98.98
2018-10-03T06:20:46.226Z,98.35
2018-10-03T06:23:14.772Z,99.14
2018-10-03T06:25:43.363Z,99.41
2018-10-03T06:28:12.029Z,100.00
2018-10-03T06:30:40.727Z,99.68
2018-10-03T06:33:09.246Z,100.00
2018-10-03T06:35:37.813Z,100.00
2018-10-03T06:38:06.609Z,100.00
2018-10-03T06:40:35.453Z,100.00
2018-10-03T06:43:04.065Z,100.00
2018-10-03T06:45:32.663Z,100.00
2018-10-03T06:48:01.258Z,99.94
2018-10-03T06:50:30.099Z,99.78
2018-10-03T06:52:58.776Z,99.42
2018-10-03T06:55:27.456Z,98.65
2018-10-03T06:57:56.192Z,99.08
2018-10-03T07:00:24.758Z,98.09
2018-10-03T07:02:53.344Z,97.81
2018-10-03T07:05:21.997Z,97.73
2018-10-03T07:07:50.559Z,97.52
2018-10-03T07:10:19.121Z,97.47
2018-10-03T07:12:47.804Z,97.00
2018-10-03T07:15:16.441Z,96.07
2018-10-03T07:17:45.017Z,95.40
2018-10-03T07:20:13.620Z,95.47
2018-10-03T07:22:42.217Z,94.98
2018-10-03T07:25:10.766Z,94.50
2018-10-03T07:27:39.469Z,94.20
2018-10-03T07:30:08.264Z,93.97
2018-10-03T07:32:36.873Z,92.85
2018-10-03T07:35:05.664Z,91.80
2018-10-03T07:37:34.428Z,91.13
2018-10-03T07:40:03.031Z,89.37
2018-10-03T07:42:31.745Z,89.54
2018-10-03T07:45:00.417Z,89.94
2018-10-03T07:47:29.113Z,89.61
2018-10-03T07:49:57.760Z,89.26
2018-10-03T07:52:27.045Z,89.81
2018-10-03T07:54:55.690Z,89.15
2018-10-03T07:57:24.689Z,88.60
2018-10-03T08:00:02.957Z,88.55
2018-10-03T08:02:31.572Z,88.47
2018-10-03T08:05:00.117Z,87.48
2018-10-03T08:07:28.692Z,84.44
2018-10-03T08:09:57.347Z,84.17
2018-10-03T08:12:25.945Z,83.96
2018-10-03T08:14:54.513Z,82.67
2018-10-03T08:17:23.265Z,82.13
2018-10-03T08:19:51.924Z,81.71
2018-10-03T08:22:20.521Z,79.65
2018-10-03T08:24:49.129Z,78.03
2018-10-03T08:27:17.676Z,77.90
2018-10-03T08:29:46.325Z,77.67
2018-10-03T08:32:15.115Z,77.78
2018-10-03T08:34:43.637Z,77.50
2018-10-03T08:37:12.737Z,77.55
2018-10-03T08:39:41.678Z,77.36
2018-10-03T08:42:10.400Z,76.28
2018-10-03T08:44:39.770Z,75.89
2018-10-03T08:47:08.482Z,72.21
2018-10-03T08:49:37.262Z,71.70
2018-10-03T08:52:05.849Z,71.79
2018-10-03T08:54:34.441Z,72.33
2018-10-03T08:57:03.272Z,71.80
2018-10-03T08:59:31.872Z,72.00
2018-10-03T09:02:01.143Z,72.04
2018-10-03T09:04:29.737Z,67.89
2018-10-03T09:06:58.437Z,67.41
2018-10-03T09:09:27.176Z,66.83
2018-10-03T09:11:55.779Z,65.40
2018-10-03T09:14:24.533Z,66.01
2018-10-03T09:16:53.198Z,61.62
2018-10-03T09:19:21.801Z,61.03
2018-10-03T09:21:50.365Z,59.57
2018-10-03T09:24:19.314Z,59.21
2018-10-03T09:26:47.940Z,60.10
2018-10-03T09:29:16.720Z,58.56
2018-10-03T09:31:50.274Z,58.39
2018-10-03T09:34:18.824Z,57.33
2018-10-03T09:36:47.661Z,56.37
2018-10-03T09:39:16.248Z,56.07
2018-10-03T09:41:44.797Z,55.77
2018-10-03T09:44:13.415Z,54.50
2018-10-03T09:46:43.073Z,54.54
2018-10-03T09:49:12.511Z,55.22
2018-10-03T09:51:41.160Z,54.24
2018-10-03T09:54:09.791Z,53.85
2018-10-03T09:56:38.429Z,52.79
2018-10-03T09:59:07.049Z,52.25
2018-10-03T10:01:35.784Z,53.39
2018-10-03T10:04:05.289Z,52.64
2018-10-03T10:06:35.089Z,52.41
2018-10-03T10:09:05.700Z,53.02
2018-10-03T10:11:34.484Z,54.71
2018-10-03T10:14:03.152Z,54.81
2018-10-03T10:16:31.769Z,54.01
2018-10-03T10:19:00.520Z,55.36
2018-10-03T10:21:29.285Z,56.04
2018-10-03T10:23:57.850Z,55.73
2018-10-03T10:26:26.410Z,57.06
2018-10-03T10:29:01.453Z,56.60
2018-10-03T10:31:31.574Z,56.40
2018-10-03T10:34:00.210Z,57.54
2018-10-03T10:36:28.892Z,56.83
2018-10-03T10:38:57.489Z,57.32
2018-10-03T10:41:26.347Z,57.08
2018-10-03T10:43:54.765Z,57.28
2018-10-03T10:46:23.404Z,57.24
2018-10-03T10:48:52.108Z,56.21
2018-10-03T10:51:20.756Z,55.80
2018-10-03T10:53:49.394Z,56.27
2018-10-03T10:56:17.968Z,56.41
2018-10-03T10:58:46.562Z,55.53
2018-10-03T11:01:15.127Z,55.71
2018-10-03T11:03:43.772Z,55.63
2018-10-03T11:06:12.565Z,53.42
2018-10-03T11:08:41.368Z,53.65
2018-10-03T11:11:10.081Z,53.72
2018-10-03T11:13:39.656Z,53.48
2018-10-03T11:16:08.733Z,53.67
2018-10-03T11:18:40.452Z,52.93
2018-10-03T11:21:09.189Z,52.64
2018-10-03T11:23:37.985Z,52.05
2018-10-03T11:26:06.608Z,51.12
2018-10-03T11:28:36.639Z,50.92
2018-10-03T11:31:05.339Z,51.06
2018-10-03T11:33:34.224Z,51.16
2018-10-03T11:36:02.785Z,50.40
2018-10-03T11:38:31.368Z,49.57
2018-10-03T11:41:00.217Z,49.63
2018-10-03T11:43:28.900Z,51.11
2018-10-03T11:45:57.489Z,50.09
2018-10-03T11:48:26.328Z,50.06
2018-10-03T11:50:54.853Z,49.56
2018-10-03T11:53:23.465Z,49.29
2018-10-03T11:55:52.318Z,48.57
2018-10-03T11:58:20.937Z,47.38
2018-10-03T12:00:49.588Z,49.44
2018-10-03T12:03:18.314Z,48.28
2018-10-03T12:05:46.881Z,48.60
2018-10-03T12:08:15.617Z,47.04
2018-10-03T12:10:44.532Z,48.10
2018-10-03T12:13:13.294Z,48.13
2018-10-03T12:15:41.853Z,46.55
2018-10-03T12:18:10.537Z,48.39
2018-10-03T12:20:39.169Z,48.43
2018-10-03T12:23:07.811Z,49.48
2018-10-03T12:25:36.614Z,48.46
2018-10-03T12:28:05.361Z,49.12
2018-10-03T12:30:34.029Z,48.51
2018-10-03T12:33:02.811Z,48.39
2018-10-03T12:35:33.987Z,48.31
2018-10-03T12:38:03.477Z,47.53
2018-10-03T12:40:32.681Z,48.64
2018-10-03T12:43:01.385Z,48.51
2018-10-03T12:45:30.288Z,47.18
2018-10-03T12:47:59.180Z,47.01
2018-10-03T12:50:28.492Z,46.67
2018-10-03T12:52:57.121Z,47.44
2018-10-03T12:55:25.773Z,46.52
2018-10-03T12:57:54.369Z,46.84
2018-10-03T13:00:25.632Z,45.73
2018-10-03T13:02:54.229Z,45.54
2018-10-03T13:05:22.796Z,46.66
2018-10-03T13:07:51.651Z,47.34
2018-10-03T13:10:20.459Z,46.77
2018-10-03T13:12:49.104Z,47.90
2018-10-03T13:15:18.037Z,46.27
2018-10-03T13:17:46.624Z,45.62
2018-10-03T13:20:15.149Z,45.59
2018-10-03T13:22:44.865Z,46.23
2018-10-03T13:25:13.409Z,45.57
2018-10-03T13:27:42.333Z,45.88
2018-10-03T13:30:11.065Z,46.69
2018-10-03T13:32:39.660Z,48.28
2018-10-03T13:35:08.245Z,47.81
2018-10-03T13:37:36.950Z,48.38
2018-10-03T13:40:05.673Z,47.93
2018-10-03T13:42:34.220Z,47.35
2018-10-03T13:45:02.900Z,49.49
2018-10-03T13:47:31.507Z,48.36
2018-10-03T13:50:00.211Z,48.79
2018-10-03T13:52:28.961Z,48.29
2018-10-03T13:54:57.485Z,48.81
2018-10-03T13:57:26.182Z,49.09
2018-10-03T13:59:54.805Z,48.38
2018-10-03T14:02:23.421Z,49.27
2018-10-03T14:04:52.016Z,49.70
2018-10-03T14:07:20.704Z,50.14
2018-10-03T14:09:49.257Z,50.85
2018-10-03T14:12:17.936Z,50.13
2018-10-03T14:14:46.913Z,50.81
2018-10-03T14:17:15.765Z,50.42
2018-10-03T14:19:44.392Z,50.56
2018-10-03T14:22:13.127Z,50.24
2018-10-03T14:24:41.653Z,50.29
2018-10-03T14:27:10.225Z,51.02
2018-10-03T14:29:39.006Z,51.52
2018-10-03T14:32:07.593Z,51.64
2018-10-03T14:34:36.224Z,51.60
2018-10-03T14:37:04.784Z,52.07
2018-10-03T14:39:33.601Z,51.45
2018-10-03T14:42:02.312Z,52.00
2018-10-03T14:44:31.655Z,52.48
2018-10-03T14:47:00.559Z,51.15
2018-10-03T14:49:29.597Z,52.26
2018-10-03T14:51:58.678Z,52.38
2018-10-03T14:54:27.578Z,52.50
2018-10-03T14:56:56.209Z,52.80
2018-10-03T14:59:24.918Z,51.49
2018-10-03T15:01:54.003Z,51.86
2018-10-03T15:04:22.716Z,51.63
2018-10-03T15:06:51.418Z,51.64
2018-10-03T15:09:20.406Z,51.92
2018-10-03T15:11:49.161Z,52.50
2018-10-03T15:14:18.194Z,51.80
2018-10-03T15:16:47.480Z,52.58
2018-10-03T15:19:16.386Z,52.39
2018-10-03T15:21:45.553Z,52.67
2018-10-03T15:24:14.362Z,52.32
2018-10-03T15:26:43.172Z,52.24
2018-10-03T15:29:12.011Z,51.75
2018-10-03T15:31:40.798Z,51.98
2018-10-03T15:34:09.352Z,51.97
2018-10-03T15:36:38.590Z,52.23
2018-10-03T15:39:08.752Z,52.69
2018-10-03T15:41:37.825Z,51.92
2018-10-03T15:44:06.556Z,52.65
2018-10-03T15:46:35.104Z,52.51
2018-10-03T15:49:03.740Z,51.94
2018-10-03T15:51:32.329Z,52.60
2018-10-03T15:54:00.959Z,52.83
2018-10-03T15:56:29.685Z,53.32
2018-10-03T15:58:58.398Z,53.12
2018-10-03T16:01:27.020Z,53.39
2018-10-03T16:03:56.056Z,53.55
2018-10-03T16:06:24.725Z,53.26
2018-10-03T16:08:53.409Z,53.09
2018-10-03T16:11:23.289Z,53.67
2018-10-03T16:13:51.952Z,54.77
2018-10-03T16:16:20.529Z,55.03
2018-10-03T16:18:49.468Z,54.84
2018-10-03T16:21:18.180Z,55.59
2018-10-03T16:23:46.809Z,55.73
2018-10-03T16:26:15.641Z,56.75
2018-10-03T16:28:44.270Z,56.23
2018-10-03T16:31:13.055Z,56.34
2018-10-03T16:33:41.640Z,55.71
2018-10-03T16:36:10.305Z,56.55
2018-10-03T16:38:38.962Z,57.31
2018-10-03T16:41:07.673Z,57.27
2018-10-03T16:43:36.322Z,57.84
2018-10-03T16:46:04.932Z,57.98
2018-10-03T16:48:33.789Z,57.60
2018-10-03T16:51:02.318Z,57.32
2018-10-03T16:53:30.997Z,57.73
2018-10-03T16:55:59.733Z,57.90
2018-10-03T16:58:28.349Z,58.46
2018-10-03T17:00:56.973Z,58.46
2018-10-03T17:03:25.626Z,58.61
2018-10-03T17:08:45.915Z,59.63
2018-10-03T17:11:14.550Z,59.03
2018-10-03T17:13:54.340Z,58.90
2018-10-03T17:16:22.995Z,59.65
2018-10-03T17:18:51.529Z,60.04
2018-10-03T17:21:20.400Z,60.04
2018-10-03T17:23:48.989Z,59.92
2018-10-03T17:26:17.524Z,60.74
2018-10-03T17:28:46.628Z,60.37
2018-10-03T17:31:15.200Z,60.74
2018-10-03T17:33:43.809Z,60.71
2018-10-03T17:36:12.513Z,60.38
2018-10-03T17:38:41.206Z,60.10
2018-10-03T17:41:09.852Z,60.01
2018-10-03T17:43:38.705Z,59.61
2018-10-03T17:46:07.644Z,60.85
2018-10-03T17:48:36.285Z,61.46
2018-10-03T17:51:05.121Z,62.60
2018-10-03T17:53:33.761Z,63.16
2018-10-03T17:56:02.394Z,64.76
2018-10-03T17:58:31.083Z,66.00
2018-10-03T18:00:59.717Z,66.30
2018-10-03T18:03:28.506Z,67.31
2018-10-03T18:05:57.409Z,69.09
2018-10-03T18:08:26.085Z,69.43
2018-10-03T18:10:54.709Z,70.47
2018-10-03T18:13:23.643Z,70.56
2018-10-03T18:15:52.748Z,70.59
2018-10-03T18:18:21.388Z,71.79
2018-10-03T18:20:50.643Z,72.34
2018-10-03T18:23:19.755Z,73.04
2018-10-03T18:25:48.852Z,72.48
2018-10-03T18:28:17.660Z,72.84
2018-10-03T18:30:46.790Z,73.92
2018-10-03T18:33:15.815Z,73.96
2018-10-03T18:35:45.360Z,74.79
2018-10-03T18:38:14.359Z,74.71
2018-10-03T18:40:43.874Z,75.52
2018-10-03T18:43:12.664Z,75.21
2018-10-03T18:45:41.262Z,75.88
2018-10-03T18:48:10.243Z,75.64
2018-10-03T18:50:39.454Z,75.59
2018-10-03T18:53:08.635Z,76.58
2018-10-03T18:55:37.763Z,77.27
2018-10-03T18:58:07.228Z,77.47
2018-10-03T19:00:36.228Z,77.94
2018-10-03T19:03:05.154Z,78.25
2018-10-03T19:05:34.352Z,78.50
2018-10-03T19:08:03.329Z,78.65
2018-10-03T19:10:32.526Z,78.51
2018-10-03T19:13:01.515Z,79.89
2018-10-03T19:15:30.668Z,80.60
2018-10-03T19:18:00.049Z,80.95
2018-10-03T19:20:29.212Z,81.29
2018-10-03T19:22:58.345Z,81.36
2018-10-03T19:25:27.486Z,81.20
2018-10-03T19:27:56.797Z,81.41
2018-10-03T19:30:25.976Z,81.00
2018-10-03T19:32:55.187Z,81.20
2018-10-03T19:35:25.150Z,80.87
2018-10-03T19:37:54.265Z,81.54
2018-10-03T19:40:23.471Z,81.84
2018-10-03T19:42:52.897Z,82.27
2018-10-03T19:45:22.049Z,83.00
2018-10-03T19:47:51.313Z,82.54
2018-10-03T19:50:20.733Z,82.35
2018-10-03T19:52:49.961Z,82.77
2018-10-03T19:55:19.112Z,83.39
2018-10-03T19:57:48.151Z,83.19
2018-10-03T20:00:17.880Z,83.86
2018-10-03T20:02:47.036Z,83.50
2018-10-03T20:05:16.181Z,84.20
2018-10-03T20:07:45.059Z,83.68
2018-10-03T20:10:14.162Z,83.66
2018-10-03T20:12:43.181Z,82.82
2018-10-03T20:15:11.906Z,83.36
2018-10-03T20:17:40.436Z,83.34
2018-10-03T20:20:09.185Z,84.29
2018-10-03T20:22:37.758Z,84.20
2018-10-03T20:25:06.317Z,84.19
2018-10-03T20:27:35.161Z,84.13
2018-10-03T20:30:03.797Z,84.73
2018-10-03T20:32:32.404Z,84.60
2018-10-03T20:35:01.362Z,84.42
2018-10-03T20:37:29.948Z,84.71
2018-10-03T20:39:58.510Z,84.95
2018-10-03T20:42:27.449Z,83.84
2018-10-03T20:44:56.006Z,84.88
2018-10-03T20:47:24.588Z,85.28
2018-10-03T20:49:53.485Z,85.37
2018-10-03T20:52:22.123Z,85.87
2018-10-03T20:54:50.661Z,85.92
2018-10-03T20:57:19.196Z,85.86
2018-10-03T20:59:47.709Z,85.95
2018-10-03T21:02:16.285Z,86.20
2018-10-03T21:04:44.936Z,86.23
2018-10-03T21:07:13.701Z,86.42
2018-10-03T21:09:42.276Z,85.65
2018-10-03T21:12:11.232Z,85.06
2018-10-03T21:14:39.768Z,85.52
2018-10-03T21:17:08.383Z,85.11
2018-10-03T21:19:37.013Z,85.77
2018-10-03T21:22:05.604Z,85.97
2018-10-03T21:24:34.168Z,86.78
2018-10-03T21:27:03.008Z,86.99
2018-10-03T21:29:31.525Z,86.04
2018-10-03T21:32:00.174Z,86.33
2018-10-03T21:34:28.904Z,86.98
2018-10-03T21:36:57.506Z,87.56
2018-10-03T21:39:26.246Z,87.48
2018-10-03T21:41:54.993Z,87.47
2018-10-03T21:44:23.497Z,87.04
2018-10-03T21:46:52.022Z,86.52
2018-10-03T21:49:20.788Z,86.45
2018-10-03T21:51:49.334Z,86.77
2018-10-03T21:54:17.937Z,87.08
2018-10-03T21:56:47.009Z,87.12
2018-10-03T21:59:15.584Z,86.52
2018-10-03T22:01:44.200Z,87.10
2018-10-03T22:04:12.881Z,86.29
2018-10-03T22:06:41.597Z,86.63
2018-10-03T22:09:10.228Z,86.65
2018-10-03T22:11:38.780Z,87.45
2018-10-03T22:14:07.360Z,87.32
2018-10-03T22:16:36.248Z,86.71
2018-10-03T22:19:04.813Z,88.20
2018-10-03T22:21:33.452Z,87.88
2018-10-03T22:24:02.064Z,87.46
2018-10-03T22:26:30.669Z,88.20
2018-10-03T22:28:59.304Z,87.92
2018-10-03T22:31:27.802Z,89.21
2018-10-03T22:33:56.654Z,90.28
2018-10-03T22:36:25.200Z,89.26
2018-10-03T22:38:53.778Z,90.16
2018-10-03T22:41:22.544Z,88.51
2018-10-03T22:43:51.096Z,88.59
2018-10-03T22:46:19.652Z,88.35
2018-10-03T22:48:48.429Z,88.40
2018-10-03T22:51:17.100Z,87.94
2018-10-03T22:53:45.743Z,87.68
2018-10-03T22:56:14.432Z,88.46
2018-10-03T22:58:42.985Z,89.80
2018-10-03T23:01:11.597Z,89.24
2018-10-03T23:03:40.145Z,88.90
2018-10-03T23:06:08.785Z,89.57
2018-10-03T23:08:37.304Z,89.77
2018-10-03T23:11:05.992Z,89.62
2018-10-03T23:13:34.561Z,88.56
2018-10-03T23:16:03.193Z,88.74
2018-10-03T23:18:31.761Z,89.10
2018-10-03T23:21:00.264Z,88.58
2018-10-03T23:23:28.825Z,88.67
2018-10-03T23:25:57.721Z,88.30
2018-10-03T23:28:26.340Z,87.68
2018-10-03T23:30:55.048Z,88.40
2018-10-03T23:33:23.666Z,87.99
2018-10-03T23:35:52.289Z,88.69
2018-10-03T23:38:20.800Z,88.66
2018-10-03T23:40:49.552Z,88.46
2018-10-03T23:43:18.253Z,87.86
2018-10-03T23:45:46.777Z,87.56
2018-10-03T23:48:15.560Z,88.43
2018-10-03T23:50:44.121Z,87.90
2018-10-03T23:53:12.708Z,88.73
2018-10-03T23:55:41.306Z,89.08
2018-10-03T23:58:09.954Z,89.29
